Time;durP1;ratioP1;P1;durP2;ratioP2;P2;SDS_P1;SDS_P2;PMS_P1;PMS_P2;Temp;Humidity;BMP_temperature;BMP_pressure;BME280_temperature;BME280_humidity;BME280_pressure;Samples;Min_cycle;Max_cycle;Signal;HPM_P1;HPM_P2
2022/11/05 00:10:42;;;;;;;;;;;;;;;21.64;43.10;95542.47;5134628;27;19964;-34
2022/11/05 00:18:36;;;;;;;;;;;;;;;21.67;42.85;95558.00;5133658;27;19972;-33
2022/11/05 00:21:01;;;;;;;;;;;;;;;21.48;43.37;95560.00;5154733;27;20359;-34
2022/11/05 00:26:11;;;;;;;;;;;;;;;21.57;43.39;95559.63;5156873;27;19951;-34
2022/11/05 00:28:37;;;;;;;;;;;;;;;21.60;42.55;95558.59;5156853;27;19910;-34
2022/11/05 00:31:08;;;;;;;;;;;;;;;21.58;42.51;95546.59;5156157;27;19911;-34
2022/11/05 00:33:34;;;;;;;;;;;;;;;21.65;43.01;95551.50;5156554;27;19906;-35
2022/11/05 00:36:00;;;;;;;;;;;;;;;21.58;42.73;95550.09;5156544;27;19959;-35
2022/11/05 00:38:26;;;;;;;;;;;;;;;21.59;42.82;95557.09;5156476;27;19907;-35
2022/11/05 00:40:51;;;;;;;;;;;;;;;21.59;42.80;95545.31;5156511;27;20395;-34
2022/11/05 00:46:00;;;;;;;;;;;;;;;21.57;43.28;95553.38;5156257;27;19913;-34
2022/11/05 00:51:09;;;;;;;;;;;;;;;21.61;42.73;95551.81;5156305;27;19959;-33
2022/11/05 00:53:35;;;;;;;;;;;;;;;21.61;43.14;95560.09;5156100;27;20336;-34
2022/11/05 00:56:01;;;;;;;;;;;;;;;21.62;42.97;95547.03;5156241;27;19921;-34
2022/11/05 00:58:27;;;;;;;;;;;;;;;21.56;42.75;95549.13;5155944;27;19907;-35
2022/11/05 01:00:54;;;;;;;;;;;;;;;21.48;43.08;95552.47;5156227;27;19998;-33
2022/11/05 01:03:21;;;;;;;;;;;;;;;21.52;42.71;95547.38;5155728;27;19951;-34
2022/11/05 01:05:47;;;;;;;;;;;;;;;21.55;43.03;95550.38;5156044;27;19954;-38
2022/11/05 01:08:14;;;;;;;;;;;;;;;21.49;43.00;95542.94;5156174;27;20277;-34
2022/11/05 01:10:51;;;;;;;;;;;;;;;21.45;43.07;95541.72;5155890;27;19920;-34
2022/11/05 01:13:18;;;;;;;;;;;;;;;21.47;42.90;95545.47;5155722;27;19907;-34
2022/11/05 01:15:43;;;;;;;;;;;;;;;21.49;43.02;95536.66;5155786;27;20071;-34
2022/11/05 01:18:08;;;;;;;;;;;;;;;21.47;42.67;95533.69;5155593;27;19938;-36
2022/11/05 01:20:34;;;;;;;;;;;;;;;21.48;43.17;95535.91;5155755;27;19922;-35
2022/11/05 01:22:59;;;;;;;;;;;;;;;21.49;42.71;95534.66;5155876;27;19917;-35
2022/11/05 01:25:24;;;;;;;;;;;;;;;21.51;42.33;95531.38;5155831;27;19914;-34
2022/11/05 01:27:50;;;;;;;;;;;;;;;21.51;42.53;95523.81;5155770;27;20415;-33
2022/11/05 01:30:15;;;;;;;;;;;;;;;21.50;42.82;95516.84;5155623;27;19907;-34
2022/11/05 01:32:40;;;;;;;;;;;;;;;21.46;42.40;95504.59;5155558;27;19929;-34
2022/11/05 01:35:07;;;;;;;;;;;;;;;21.49;42.41;95495.28;5155803;27;19907;-36
2022/11/05 01:37:33;;;;;;;;;;;;;;;21.49;42.56;95492.53;5155540;27;19907;-37
2022/11/05 01:39:59;;;;;;;;;;;;;;;21.48;42.17;95488.28;5155447;27;20373;-38
2022/11/05 01:42:25;;;;;;;;;;;;;;;21.49;42.31;95501.56;5155248;27;19911;-38
2022/11/05 01:44:56;;;;;;;;;;;;;;;21.40;42.63;95506.66;5158589;27;19911;-36
2022/11/05 01:47:24;;;;;;;;;;;;;;;21.32;42.26;95509.28;5159933;27;19925;-35
2022/11/05 01:49:51;;;;;;;;;;;;;;;21.36;42.32;95509.75;5159586;27;19958;-35
2022/11/05 01:52:17;;;;;;;;;;;;;;;21.39;42.35;95519.72;5159762;27;19959;-34
2022/11/05 01:54:42;;;;;;;;;;;;;;;21.48;42.29;95510.34;5159594;27;20350;-34
2022/11/05 01:57:09;;;;;;;;;;;;;;;21.48;41.79;95505.56;5159689;27;19907;-35
2022/11/05 01:59:38;;;;;;;;;;;;;;;21.40;42.51;95495.63;5159545;27;20052;-34
2022/11/05 02:02:05;;;;;;;;;;;;;;;21.43;42.26;95489.81;5159255;27;20282;-34
2022/11/05 02:04:31;;;;;;;;;;;;;;;21.35;42.22;95480.66;5159563;27;20310;-35
2022/11/05 02:06:58;;;;;;;;;;;;;;;21.27;42.61;95479.75;5159440;27;19911;-35
2022/11/05 02:09:32;;;;;;;;;;;;;;;21.32;42.40;95478.19;5159397;27;19929;-34
2022/11/05 02:11:57;;;;;;;;;;;;;;;21.42;42.20;95485.56;5159233;27;20388;-34
2022/11/05 02:14:22;;;;;;;;;;;;;;;21.39;42.54;95491.38;5159196;27;19912;-35
2022/11/05 02:16:57;;;;;;;;;;;;;;;21.34;42.47;95508.75;5159209;27;19907;-35
2022/11/05 02:19:22;;;;;;;;;;;;;;;21.35;42.74;95532.31;5157649;27;19907;-34
2022/11/05 02:21:48;;;;;;;;;;;;;;;21.30;42.83;95539.38;5158992;27;19974;-35
2022/11/05 02:24:31;;;;;;;;;;;;;;;21.26;43.07;95557.50;5158919;27;19918;-35
2022/11/05 02:27:10;;;;;;;;;;;;;;;21.28;42.88;95568.72;5158953;27;19910;-33
2022/11/05 02:29:54;;;;;;;;;;;;;;;21.32;42.73;95569.19;5159193;27;19907;-34
2022/11/05 02:32:19;;;;;;;;;;;;;;;21.19;43.65;95577.34;5158557;27;19907;-34
2022/11/05 02:34:50;;;;;;;;;;;;;;;21.28;43.05;95575.00;5158962;27;19907;-34
2022/11/05 02:37:15;;;;;;;;;;;;;;;21.29;43.03;95584.00;5159182;27;19907;-34
2022/11/05 02:39:40;;;;;;;;;;;;;;;21.30;42.98;95585.50;5158835;27;20400;-34
2022/11/05 02:42:15;;;;;;;;;;;;;;;21.29;43.43;95587.53;5158649;27;19951;-35
2022/11/05 02:44:53;;;;;;;;;;;;;;;21.30;43.28;95585.50;5158615;27;20381;-34
2022/11/05 02:47:21;;;;;;;;;;;;;;;21.32;43.06;95580.22;5158817;27;19907;-34
2022/11/05 02:49:46;;;;;;;;;;;;;;;21.36;43.05;95577.94;5158676;27;19907;-34
2022/11/05 02:52:15;;;;;;;;;;;;;;;21.32;43.19;95571.97;5158505;27;19914;-34
2022/11/05 02:54:55;;;;;;;;;;;;;;;21.33;43.26;95581.72;5158147;27;19999;-34
2022/11/05 02:57:21;;;;;;;;;;;;;;;21.31;43.32;95578.72;5158458;27;19907;-34
2022/11/05 02:59:46;;;;;;;;;;;;;;;21.35;43.17;95579.19;5158392;27;19907;-33
2022/11/05 03:02:11;;;;;;;;;;;;;;;21.41;43.07;95577.13;5158494;27;20247;-34
2022/11/05 03:04:37;;;;;;;;;;;;;;;21.26;43.41;95571.28;5158371;27;19955;-34
2022/11/05 03:07:02;;;;;;;;;;;;;;;21.30;43.35;95572.47;5158455;27;19939;-37
2022/11/05 03:09:34;;;;;;;;;;;;;;;21.30;43.39;95568.97;5158263;27;20276;-34
2022/11/05 03:11:59;;;;;;;;;;;;;;;21.34;43.45;95578.44;5158180;27;19954;-34
2022/11/05 03:14:39;;;;;;;;;;;;;;;21.28;43.53;95565.97;5158096;27;19942;-35
2022/11/05 03:17:08;;;;;;;;;;;;;;;21.29;43.42;95556.44;5158134;27;19907;-35
2022/11/05 03:19:40;;;;;;;;;;;;;;;21.30;43.27;95552.41;5158095;27;19959;-34
2022/11/05 03:22:10;;;;;;;;;;;;;;;21.34;43.04;95541.84;5157742;27;19915;-34
2022/11/05 03:24:37;;;;;;;;;;;;;;;21.31;43.42;95520.81;5139559;27;19954;-33
2022/11/05 03:27:03;;;;;;;;;;;;;;;21.30;43.29;95519.31;5139578;27;19907;-34
2022/11/05 03:29:32;;;;;;;;;;;;;;;21.28;43.59;95510.81;5157969;27;20272;-34
2022/11/05 03:31:58;;;;;;;;;;;;;;;21.32;43.32;95514.03;5157690;27;20319;-35
2022/11/05 03:34:28;;;;;;;;;;;;;;;21.27;43.39;95517.59;5157629;27;19942;-34
2022/11/05 03:36:55;;;;;;;;;;;;;;;21.28;43.27;95514.31;5157792;27;19952;-34
2022/11/05 03:39:28;;;;;;;;;;;;;;;21.30;43.42;95503.53;5157661;27;19911;-33
2022/11/05 03:41:55;;;;;;;;;;;;;;;21.22;43.65;95501.88;5157599;27;19907;-34
2022/11/05 03:44:23;;;;;;;;;;;;;;;21.29;43.45;95506.81;5157943;27;20415;-35
2022/11/05 03:46:50;;;;;;;;;;;;;;;21.30;43.40;95506.28;5157570;27;19998;-33
2022/11/05 03:49:23;;;;;;;;;;;;;;;21.28;43.50;95514.31;5157835;27;19907;-34
2022/11/05 03:51:54;;;;;;;;;;;;;;;21.34;43.49;95528.06;5157763;27;19907;-33
2022/11/05 03:54:19;;;;;;;;;;;;;;;21.32;43.35;95538.88;5157475;27;19907;-35
2022/11/05 03:56:53;;;;;;;;;;;;;;;21.29;43.75;95550.94;5157348;27;19918;-35
2022/11/05 03:59:20;;;;;;;;;;;;;;;21.32;43.26;95556.16;5157315;27;19907;-33
2022/11/05 04:01:46;;;;;;;;;;;;;;;21.28;43.65;95552.94;5157127;27;19911;-34
2022/11/05 04:04:11;;;;;;;;;;;;;;;21.25;43.81;95558.75;5157267;27;19906;-34
2022/11/05 04:14:48;;;;;;;;;;;;;;;21.26;43.91;95576.81;5156949;27;19914;-34
2022/11/05 04:17:13;;;;;;;;;;;;;;;21.23;43.82;95583.34;5138724;27;20005;-33
2022/11/05 04:25:13;;;;;;;;;;;;;;;21.27;43.88;95564.47;5157117;27;19913;-36
2022/11/05 04:27:38;;;;;;;;;;;;;;;21.23;43.70;95558.53;5156759;27;19932;-34
2022/11/05 04:30:19;;;;;;;;;;;;;;;21.23;43.71;95564.03;5156551;27;19910;-34
2022/11/05 04:32:55;;;;;;;;;;;;;;;21.17;44.12;95556.53;5156664;27;20307;-33
2022/11/05 04:35:20;;;;;;;;;;;;;;;21.20;43.79;95571.34;5156387;27;19907;-36
2022/11/05 04:37:48;;;;;;;;;;;;;;;21.23;44.02;95570.31;5156810;27;20006;-34
2022/11/05 04:40:14;;;;;;;;;;;;;;;21.28;43.48;95568.72;5138082;27;20325;-35
2022/11/05 04:42:39;;;;;;;;;;;;;;;21.19;43.65;95561.56;5156624;27;19958;-34
2022/11/05 04:45:04;;;;;;;;;;;;;;;21.23;44.15;95561.28;5156332;27;19993;-34
2022/11/05 04:47:30;;;;;;;;;;;;;;;21.19;43.79;95567.06;5156230;27;19907;-34
2022/11/05 04:49:55;;;;;;;;;;;;;;;21.16;43.85;95568.06;5156218;27;19914;-34
2022/11/05 04:52:20;;;;;;;;;;;;;;;21.19;43.75;95578.09;5156220;27;19911;-34
2022/11/05 04:54:46;;;;;;;;;;;;;;;21.16;43.79;95588.13;5156218;27;19918;-34
2022/11/05 04:57:11;;;;;;;;;;;;;;;21.12;44.22;95597.97;5156158;27;20471;-35
2022/11/05 04:59:36;;;;;;;;;;;;;;;21.29;43.67;95595.03;5156047;27;20378;-34
2022/11/05 05:02:02;;;;;;;;;;;;;;;21.21;43.50;95596.91;5155920;27;20358;-34
2022/11/05 05:04:27;;;;;;;;;;;;;;;21.23;43.53;95597.13;5137520;27;20001;-34
2022/11/05 05:06:52;;;;;;;;;;;;;;;21.27;43.73;95598.31;5155938;27;19913;-34
2022/11/05 05:09:17;;;;;;;;;;;;;;;21.18;44.06;95595.88;5156182;27;19998;-34
2022/11/05 05:11:43;;;;;;;;;;;;;;;21.11;44.03;95597.22;5155943;27;20002;-34
2022/11/05 05:14:08;;;;;;;;;;;;;;;21.13;43.79;95580.91;5155874;27;19914;-35
2022/11/05 05:16:33;;;;;;;;;;;;;;;21.18;43.60;95590.38;5155781;27;19913;-35
2022/11/05 05:18:59;;;;;;;;;;;;;;;21.13;43.69;95593.94;5155727;27;20373;-34
2022/11/05 05:21:39;;;;;;;;;;;;;;;21.23;43.29;95602.66;5155616;27;19921;-36
2022/11/05 05:24:11;;;;;;;;;;;;;;;21.14;43.71;95607.19;5155998;27;19993;-34
2022/11/05 05:26:38;;;;;;;;;;;;;;;21.22;43.57;95606.66;5155585;27;20014;-34
2022/11/05 05:29:05;;;;;;;;;;;;;;;21.18;43.16;95609.66;5155994;27;19907;-34
2022/11/05 05:31:31;;;;;;;;;;;;;;;21.08;43.71;95612.03;5155594;27;19914;-34
2022/11/05 05:33:56;;;;;;;;;;;;;;;21.10;43.53;95606.00;5155696;27;19915;-34
2022/11/05 05:36:22;;;;;;;;;;;;;;;21.17;42.80;95608.91;5155672;27;20006;-34
2022/11/05 05:38:47;;;;;;;;;;;;;;;21.24;42.71;95599.38;5155434;27;19918;-38
2022/11/05 05:41:13;;;;;;;;;;;;;;;21.21;42.92;95610.69;5155513;27;19907;-33
2022/11/05 05:43:38;;;;;;;;;;;;;;;21.15;42.55;95613.44;5155343;27;19911;-34
2022/11/05 05:46:08;;;;;;;;;;;;;;;21.19;43.01;95613.22;5155412;27;19914;-34
2022/11/05 05:48:34;;;;;;;;;;;;;;;21.03;43.24;95610.06;5136921;27;20289;-34
2022/11/05 05:51:03;;;;;;;;;;;;;;;21.11;43.03;95611.00;5155743;27;19914;-34
2022/11/05 05:53:28;;;;;;;;;;;;;;;21.09;43.01;95610.75;5155356;27;19914;-35
2022/11/05 05:55:54;;;;;;;;;;;;;;;21.09;42.82;95616.28;5155575;27;19911;-34
2022/11/05 05:58:19;;;;;;;;;;;;;;;21.16;42.54;95621.22;5155397;27;19960;-33
2022/11/05 06:00:45;;;;;;;;;;;;;;;21.07;43.02;95637.34;5155295;27;20358;-33
2022/11/05 06:03:10;;;;;;;;;;;;;;;21.04;42.68;95663.19;5155303;27;19965;-34
2022/11/05 06:05:35;;;;;;;;;;;;;;;21.01;42.58;95659.47;5155353;27;20269;-34
2022/11/05 06:08:03;;;;;;;;;;;;;;;20.97;42.75;95664.50;5155290;27;19907;-34
2022/11/05 06:10:29;;;;;;;;;;;;;;;20.97;42.85;95669.25;5155373;27;19906;-34
2022/11/05 06:12:54;;;;;;;;;;;;;;;20.97;42.76;95681.03;5155259;27;19913;-34
2022/11/05 06:15:19;;;;;;;;;;;;;;;20.99;42.49;95683.28;5155546;27;20013;-34
2022/11/05 06:17:45;;;;;;;;;;;;;;;21.03;42.94;95690.00;5155568;27;19911;-34
2022/11/05 06:20:11;;;;;;;;;;;;;;;20.87;42.88;95684.63;5155078;27;20255;-34
2022/11/05 06:22:36;;;;;;;;;;;;;;;21.02;42.41;95696.78;5155108;27;20380;-34
2022/11/05 06:25:01;;;;;;;;;;;;;;;20.98;42.77;95693.56;5155241;27;19907;-34
2022/11/05 06:27:29;;;;;;;;;;;;;;;21.00;42.56;95690.28;5155031;27;19918;-34
2022/11/05 06:29:55;;;;;;;;;;;;;;;21.09;42.63;95687.22;5156329;27;19914;-35
2022/11/05 06:32:20;;;;;;;;;;;;;;;21.07;43.07;95689.72;5159100;27;19911;-35
2022/11/05 06:34:45;;;;;;;;;;;;;;;21.07;42.77;95695.25;5158846;27;19911;-36
2022/11/05 06:37:11;;;;;;;;;;;;;;;21.03;42.92;95703.03;5158723;27;20006;-35
2022/11/05 06:39:36;;;;;;;;;;;;;;;21.11;42.63;95704.75;5142523;27;19915;-34
2022/11/05 06:42:02;;;;;;;;;;;;;;;21.07;43.09;95700.75;5131663;27;20154;-34
2022/11/05 06:44:27;;;;;;;;;;;;;;;20.91;43.00;95704.38;5130981;27;20669;-35
2022/11/05 06:46:52;;;;;;;;;;;;;;;20.87;42.67;95704.66;5131702;27;20770;-35
2022/11/05 06:49:18;;;;;;;;;;;;;;;20.99;42.62;95711.59;5131522;27;19966;-34
2022/11/05 06:51:43;;;;;;;;;;;;;;;20.91;42.61;95720.91;5124540;27;19951;-35
2022/11/05 06:54:08;;;;;;;;;;;;;;;21.07;42.65;95731.09;5123056;27;20268;-34
2022/11/05 06:56:34;;;;;;;;;;;;;;;20.96;42.50;95733.91;5123092;27;19915;-34
2022/11/05 06:58:59;;;;;;;;;;;;;;;20.86;42.99;95739.00;5141672;27;19911;-35
2022/11/05 07:01:24;;;;;;;;;;;;;;;20.96;42.64;95740.19;5158331;27;19914;-34
2022/11/05 07:03:50;;;;;;;;;;;;;;;20.94;42.46;95736.44;5158101;27;20390;-34
2022/11/05 07:06:15;;;;;;;;;;;;;;;20.85;42.54;95734.75;5158616;27;19942;-34
2022/11/05 07:08:40;;;;;;;;;;;;;;;20.86;42.82;95747.28;5158358;27;19914;-35
2022/11/05 07:11:06;;;;;;;;;;;;;;;20.88;42.86;95744.75;5158343;27;19907;-38
2022/11/05 07:13:31;;;;;;;;;;;;;;;20.90;42.91;95763.50;5158009;27;20332;-37
2022/11/05 07:15:57;;;;;;;;;;;;;;;20.83;42.92;95756.56;5158121;27;19936;-35
2022/11/05 07:18:22;;;;;;;;;;;;;;;20.87;42.91;95765.31;5157931;27;19950;-37
2022/11/05 07:20:48;;;;;;;;;;;;;;;20.89;42.73;95757.28;5151847;27;19958;-37
2022/11/05 07:23:13;;;;;;;;;;;;;;;20.79;42.52;95761.56;5147024;27;20351;-34
2022/11/05 07:25:39;;;;;;;;;;;;;;;20.75;43.07;95763.88;5156011;27;19956;-34
2022/11/05 07:28:05;;;;;;;;;;;;;;;20.76;42.68;95757.84;5136527;27;19911;-35
2022/11/05 07:30:32;;;;;;;;;;;;;;;20.85;42.68;95764.31;5134948;27;19918;-34
2022/11/05 07:32:57;;;;;;;;;;;;;;;20.84;42.52;95763.56;5134790;27;20334;-34
2022/11/05 07:35:23;;;;;;;;;;;;;;;20.84;42.94;95763.56;5135059;27;19911;-33
2022/11/05 07:37:49;;;;;;;;;;;;;;;20.90;42.32;95766.28;5135144;27;19914;-35
2022/11/05 07:40:17;;;;;;;;;;;;;;;20.85;42.69;95764.31;5154020;27;19917;-34
2022/11/05 07:42:46;;;;;;;;;;;;;;;20.83;42.76;95767.56;5154695;27;19915;-35
2022/11/05 07:45:12;;;;;;;;;;;;;;;20.79;42.77;95769.84;5155299;27;19933;-34
2022/11/05 07:47:47;;;;;;;;;;;;;;;20.85;42.67;95767.81;5155478;27;20358;-34
2022/11/05 07:50:13;;;;;;;;;;;;;;;20.80;42.84;95760.31;5155540;27;19918;-34
2022/11/05 07:52:39;;;;;;;;;;;;;;;20.68;42.94;95764.41;5155456;27;19915;-34
2022/11/05 07:55:04;;;;;;;;;;;;;;;20.88;42.45;95760.53;5155391;27;19967;-34
2022/11/05 07:57:29;;;;;;;;;;;;;;;20.81;42.62;95767.31;5154921;27;19956;-34
2022/11/05 07:59:55;;;;;;;;;;;;;;;20.84;42.75;95760.06;5155348;27;19914;-35
2022/11/05 08:02:20;;;;;;;;;;;;;;;20.82;42.35;95766.06;5155412;27;19969;-35
2022/11/05 08:04:45;;;;;;;;;;;;;;;20.87;42.47;95759.78;5155263;27;20331;-34
2022/11/05 08:07:12;;;;;;;;;;;;;;;20.71;42.66;95757.88;5155142;27;19923;-34
2022/11/05 08:09:37;;;;;;;;;;;;;;;20.67;42.97;95762.91;5154877;27;19934;-35
2022/11/05 08:12:02;;;;;;;;;;;;;;;20.79;42.47;95758.81;5155029;27;19915;-34
2022/11/05 08:14:28;;;;;;;;;;;;;;;20.76;42.49;95762.63;5154959;27;19915;-34
2022/11/05 08:16:53;;;;;;;;;;;;;;;20.75;42.54;95747.34;5132912;27;20665;-34
2022/11/05 08:19:18;;;;;;;;;;;;;;;20.78;42.34;95735.28;5135196;27;19914;-35
2022/11/05 08:21:44;;;;;;;;;;;;;;;20.80;42.51;95738.28;5156584;27;19914;-34
2022/11/05 08:24:09;;;;;;;;;;;;;;;20.63;42.66;95729.38;5156999;27;20006;-34
2022/11/05 08:26:34;;;;;;;;;;;;;;;20.82;42.29;95724.75;5156647;27;20009;-34
2022/11/05 08:29:00;;;;;;;;;;;;;;;20.68;42.61;95739.59;5156547;27;19961;-35
2022/11/05 08:31:25;;;;;;;;;;;;;;;20.70;42.43;95737.84;5156791;27;19975;-34
2022/11/05 08:33:51;;;;;;;;;;;;;;;20.69;42.62;95732.84;5156493;27;19907;-34
2022/11/05 08:36:17;;;;;;;;;;;;;;;20.73;42.36;95736.81;5156668;27;20375;-34
2022/11/05 08:38:42;;;;;;;;;;;;;;;20.59;42.65;95723.38;5156820;27;19906;-34
2022/11/05 08:41:07;;;;;;;;;;;;;;;20.59;42.69;95735.16;5156328;27;19911;-34
2022/11/05 08:43:32;;;;;;;;;;;;;;;20.73;42.42;95744.34;5156203;27;19942;-33
2022/11/05 08:46:01;;;;;;;;;;;;;;;20.57;43.11;95725.88;5156578;27;19997;-35
2022/11/05 08:48:26;;;;;;;;;;;;;;;20.70;42.34;95732.31;5156367;27;19914;-34
2022/11/05 08:50:51;;;;;;;;;;;;;;;20.65;42.46;95735.09;5156328;27;20306;-34
2022/11/05 08:53:17;;;;;;;;;;;;;;;20.65;42.71;95737.84;5156157;27;19911;-34
2022/11/05 08:55:43;;;;;;;;;;;;;;;20.56;42.79;95735.41;5156119;27;19911;-33
2022/11/05 08:58:13;;;;;;;;;;;;;;;20.63;42.51;95740.41;5156562;27;19907;-34
2022/11/05 09:00:39;;;;;;;;;;;;;;;20.61;42.59;95724.38;5156309;27;19907;-35
2022/11/05 09:03:06;;;;;;;;;;;;;;;20.64;42.54;95730.88;5156030;27;19911;-33
2022/11/05 09:05:36;;;;;;;;;;;;;;;20.69;42.53;95732.84;5155807;27;19907;-34
2022/11/05 09:08:02;;;;;;;;;;;;;;;20.71;42.57;95738.59;5155966;27;19930;-34
2022/11/05 09:10:27;;;;;;;;;;;;;;;20.69;42.55;95739.09;5155777;27;20363;-34
2022/11/05 09:12:53;;;;;;;;;;;;;;;20.70;42.30;95743.34;5156010;27;19907;-34
2022/11/05 09:15:18;;;;;;;;;;;;;;;20.60;42.45;95741.41;5155789;27;19914;-34
2022/11/05 09:17:43;;;;;;;;;;;;;;;18.85;45.19;95753.16;5155448;27;19995;-35
2022/11/05 09:20:10;;;;;;;;;;;;;;;19.97;43.00;95750.38;5137415;27;19907;-34
2022/11/05 09:22:35;;;;;;;;;;;;;;;20.43;41.66;95749.75;5155446;27;19942;-34
2022/11/05 09:25:00;;;;;;;;;;;;;;;20.58;41.70;95758.44;5155883;27;19907;-34
2022/11/05 09:27:26;;;;;;;;;;;;;;;20.73;41.28;95755.38;5155891;27;19913;-33
2022/11/05 09:29:51;;;;;;;;;;;;;;;20.30;42.03;95766.78;5155413;27;20363;-33
2022/11/05 09:32:18;;;;;;;;;;;;;;;20.45;41.89;95780.28;5155645;27;19917;-35
2022/11/05 09:34:43;;;;;;;;;;;;;;;20.44;42.24;95785.03;5155653;27;19994;-34
2022/11/05 09:37:09;;;;;;;;;;;;;;;20.55;41.70;95775.22;5155931;27;20376;-33
2022/11/05 09:39:34;;;;;;;;;;;;;;;20.56;41.93;95788.50;5155626;27;19907;-35
2022/11/05 09:42:03;;;;;;;;;;;;;;;20.74;41.46;95795.44;5155382;27;20001;-34
2022/11/05 09:44:58;;;;;;;;;;;;;;;20.58;41.90;95796.25;5137032;27;20005;-34
2022/11/05 09:47:35;;;;;;;;;;;;;;;20.63;42.00;95812.78;5133803;27;19955;-34
2022/11/05 09:50:02;;;;;;;;;;;;;;;20.70;41.48;95812.22;5155403;27;19914;-33
2022/11/05 09:52:29;;;;;;;;;;;;;;;20.53;42.26;95819.06;5155500;27;20308;-33
2022/11/05 09:54:55;;;;;;;;;;;;;;;20.61;41.98;95820.03;5155502;27;20282;-34
2022/11/05 09:57:24;;;;;;;;;;;;;;;20.47;42.32;95826.59;5155331;27;19963;-35
2022/11/05 09:59:51;;;;;;;;;;;;;;;20.53;42.37;95832.81;5155472;27;19907;-35
2022/11/05 10:02:20;;;;;;;;;;;;;;;20.65;42.12;95826.03;5155346;27;19918;-34
2022/11/05 10:04:47;;;;;;;;;;;;;;;20.62;42.12;95827.06;5156565;27;20273;-34
2022/11/05 10:07:14;;;;;;;;;;;;;;;20.67;41.97;95834.53;5159529;27;19913;-33
2022/11/05 10:09:44;;;;;;;;;;;;;;;20.84;41.65;95837.22;5159627;27;20002;-33
2022/11/05 10:12:27;;;;;;;;;;;;;;;20.73;42.18;95844.28;5159260;27;20355;-34
2022/11/05 10:15:04;;;;;;;;;;;;;;;20.74;41.99;95845.78;5159430;27;19906;-33
2022/11/05 10:17:31;;;;;;;;;;;;;;;20.83;41.95;95864.03;5159364;27;19911;-33
2022/11/05 10:20:07;;;;;;;;;;;;;;;20.74;41.99;95862.31;5141284;27;19955;-34
2022/11/05 10:22:32;;;;;;;;;;;;;;;20.72;42.29;95873.09;5136899;27;19917;-35
2022/11/05 10:24:58;;;;;;;;;;;;;;;20.86;42.08;95868.53;5138403;27;19908;-34
2022/11/05 10:27:28;;;;;;;;;;;;;;;20.76;42.34;95870.84;5138718;27;19939;-34
2022/11/05 10:29:54;;;;;;;;;;;;;;;20.80;42.11;95870.56;5138209;27;19946;-34
2022/11/05 10:32:27;;;;;;;;;;;;;;;20.36;43.07;95876.97;5138517;27;19950;-33
2022/11/05 10:34:53;;;;;;;;;;;;;;;20.76;42.41;95881.84;5138394;27;19907;-36
2022/11/05 10:37:19;;;;;;;;;;;;;;;20.90;42.11;95890.31;5119916;27;19955;-34
2022/11/05 10:39:45;;;;;;;;;;;;;;;20.84;42.25;95881.31;5138072;27;19911;-35
2022/11/05 10:42:10;;;;;;;;;;;;;;;20.76;42.43;95886.63;5138039;27;20385;-34
2022/11/05 10:44:38;;;;;;;;;;;;;;;20.95;42.28;95893.03;5137873;27;19911;-34
2022/11/05 10:47:22;;;;;;;;;;;;;;;20.87;42.30;95892.09;5137866;27;19908;-34
2022/11/05 10:49:47;;;;;;;;;;;;;;;20.92;42.29;95885.03;5137821;27;19915;-34
2022/11/05 10:52:21;;;;;;;;;;;;;;;20.83;42.13;95886.06;5138015;27;19907;-33
2022/11/05 10:54:47;;;;;;;;;;;;;;;20.78;42.36;95884.09;5137979;27;19907;-33
2022/11/05 10:57:45;;;;;;;;;;;;;;;20.69;42.54;95893.41;5137931;27;19939;-34
2022/11/05 11:00:16;;;;;;;;;;;;;;;20.76;42.43;95883.88;5091893;27;19914;-36
2022/11/05 11:02:42;;;;;;;;;;;;;;;20.71;42.58;95888.13;5137685;27;19911;-36
2022/11/05 11:05:18;;;;;;;;;;;;;;;20.88;42.31;95890.09;5119111;27;19948;-36
2022/11/05 11:07:43;;;;;;;;;;;;;;;20.93;42.13;95890.03;5137656;27;19914;-34
2022/11/05 11:10:18;;;;;;;;;;;;;;;20.92;42.31;95880.28;5137545;27;19911;-34
2022/11/05 11:12:44;;;;;;;;;;;;;;;20.92;42.35;95879.53;5137564;27;19914;-35
2022/11/05 11:15:12;;;;;;;;;;;;;;;20.76;42.71;95870.84;5137119;27;19907;-34
2022/11/05 11:17:37;;;;;;;;;;;;;;;20.68;42.80;95872.59;5137719;27;19918;-34
2022/11/05 11:20:15;;;;;;;;;;;;;;;20.79;42.57;95869.06;5137056;27;19907;-34
2022/11/05 11:22:40;;;;;;;;;;;;;;;20.86;42.48;95873.31;5137182;27;20387;-34
2022/11/05 11:25:23;;;;;;;;;;;;;;;20.67;42.63;95859.31;5137132;27;19946;-34
2022/11/05 11:27:48;;;;;;;;;;;;;;;20.72;42.91;95870.34;5137374;27;19907;-35
2022/11/05 11:30:18;;;;;;;;;;;;;;;20.79;42.83;95885.59;5137177;27;19913;-35
2022/11/05 11:32:44;;;;;;;;;;;;;;;20.90;42.58;95877.28;5137196;27;19919;-37
2022/11/05 11:35:23;;;;;;;;;;;;;;;20.91;42.65;95876.00;5137028;27;20385;-35
2022/11/05 11:37:50;;;;;;;;;;;;;;;20.89;42.49;95878.56;5136916;27;19917;-36
2022/11/05 11:40:16;;;;;;;;;;;;;;;20.94;42.75;95882.53;5136916;27;19960;-37
2022/11/05 11:42:44;;;;;;;;;;;;;;;20.74;43.12;95870.59;5118686;27;19911;-36
2022/11/05 11:45:17;;;;;;;;;;;;;;;20.98;42.58;95883.75;5136819;27;20274;-36
2022/11/05 11:47:47;;;;;;;;;;;;;;;20.92;42.47;95885.03;5136781;27;19907;-36
2022/11/05 11:50:31;;;;;;;;;;;;;;;21.02;42.64;95875.97;5136751;27;20344;-36
2022/11/05 11:53:15;;;;;;;;;;;;;;;20.92;42.81;95883.03;5136992;27;19966;-36
2022/11/05 11:55:45;;;;;;;;;;;;;;;20.79;42.94;95882.81;5136643;27;19911;-34
2022/11/05 11:58:10;;;;;;;;;;;;;;;20.80;42.94;95892.59;5136661;27;19907;-35
2022/11/05 12:00:44;;;;;;;;;;;;;;;20.89;43.04;95881.31;5136541;27;19913;-34
2022/11/05 12:03:09;;;;;;;;;;;;;;;21.02;42.36;95884.22;5136525;27;19911;-35
2022/11/05 12:05:41;;;;;;;;;;;;;;;21.00;42.60;95894.28;5117957;27;19907;-34
2022/11/05 12:08:09;;;;;;;;;;;;;;;20.96;42.68;95891.78;5136573;27;20005;-35
2022/11/05 12:11:10;;;;;;;;;;;;;;;20.88;43.00;95892.84;5117796;27;19911;-33
2022/11/05 12:13:35;;;;;;;;;;;;;;;20.85;42.93;95899.34;5053104;28;19909;-37
2022/11/05 12:16:03;;;;;;;;;;;;;;;20.93;42.87;95895.56;5053163;28;19916;-35
2022/11/05 12:18:35;;;;;;;;;;;;;;;21.01;42.82;95895.78;5052896;28;20386;-36
2022/11/05 12:21:13;;;;;;;;;;;;;;;20.96;42.73;95905.56;5052992;28;19970;-37
2022/11/05 12:24:04;;;;;;;;;;;;;;;20.63;43.58;95895.44;5052633;28;19913;-36
2022/11/05 12:26:29;;;;;;;;;;;;;;;20.86;42.84;95898.84;5037417;28;19908;-36
2022/11/05 12:29:15;;;;;;;;;;;;;;;20.87;43.08;95905.88;5052173;28;19909;-35
2022/11/05 12:31:40;;;;;;;;;;;;;;;20.96;42.77;95913.84;5045361;28;19970;-36
2022/11/05 12:34:08;;;;;;;;;;;;;;;20.94;42.87;95916.34;5052848;28;20409;-35
2022/11/05 12:36:34;;;;;;;;;;;;;;;20.99;42.50;95914.84;5052638;28;19919;-36
2022/11/05 12:39:19;;;;;;;;;;;;;;;21.03;42.63;95924.31;5035735;28;20377;-36
2022/11/05 12:41:59;;;;;;;;;;;;;;;20.66;42.25;95923.94;5035949;28;20357;-36
2022/11/05 12:44:27;;;;;;;;;;;;;;;20.74;43.34;95933.22;5052708;28;20454;-35
2022/11/05 12:47:11;;;;;;;;;;;;;;;20.90;42.88;95926.13;5071323;27;19944;-36
2022/11/05 12:49:56;;;;;;;;;;;;;;;20.89;42.67;95930.91;5135584;27;19928;-34
2022/11/05 12:52:22;;;;;;;;;;;;;;;20.97;42.71;95931.88;5135721;27;19907;-35
2022/11/05 12:55:07;;;;;;;;;;;;;;;20.90;42.73;95935.16;5135454;27;20430;-36
2022/11/05 12:57:35;;;;;;;;;;;;;;;20.86;42.87;95929.16;5135567;27;19953;-35
2022/11/05 13:00:00;;;;;;;;;;;;;;;20.90;42.56;95923.38;5135254;27;19918;-36
2022/11/05 13:02:31;;;;;;;;;;;;;;;20.86;42.77;95923.66;5135423;27;20275;-38
2022/11/05 13:05:15;;;;;;;;;;;;;;;20.94;42.74;95918.34;5135372;27;19907;-35
2022/11/05 13:08:02;;;;;;;;;;;;;;;20.75;43.04;95935.47;5135204;27;19914;-36
2022/11/05 13:10:36;;;;;;;;;;;;;;;20.78;42.93;95931.69;5135224;27;19918;-35
2022/11/05 13:13:15;;;;;;;;;;;;;;;20.93;42.63;95933.41;5135220;27;19907;-34
2022/11/05 13:15:48;;;;;;;;;;;;;;;20.89;42.69;95950.22;5116775;27;20328;-34
2022/11/05 13:18:17;;;;;;;;;;;;;;;20.91;42.45;95946.94;5135221;27;20278;-34
2022/11/05 13:20:45;;;;;;;;;;;;;;;20.56;43.25;95950.28;5134951;27;20048;-34
2022/11/05 13:23:13;;;;;;;;;;;;;;;20.88;42.60;95953.47;5135002;27;19918;-34
2022/11/05 13:25:43;;;;;;;;;;;;;;;20.76;42.68;95952.75;5134943;27;19907;-34
2022/11/05 13:28:18;;;;;;;;;;;;;;;20.86;42.51;95956.72;5134937;27;20351;-35
2022/11/05 13:30:46;;;;;;;;;;;;;;;20.81;42.63;95971.25;5134964;27;19907;-35